Time;durP1;ratioP1;P1;durP2;ratioP2;P2;SDS_P1;SDS_P2;PMS_P1;PMS_P2;Temp;Humidity;BMP_temperature;BMP_pressure;BME280_temperature;BME280_humidity;BME280_pressure;Samples;Min_cycle;Max_cycle;Signal;HPM_P1;HPM_P2
2023/02/11 00:00:10;;;;;;;31.93;19.23;;;0.60;99.90;;;;;;5051244;28;20178;-86
2023/02/11 00:02:36;;;;;;;27.30;18.30;;;0.80;99.90;;;;;;5032403;28;20428;-85
2023/02/11 00:05:01;;;;;;;31.93;20.93;;;0.30;99.90;;;;;;5031167;28;20204;-86
2023/02/11 00:07:31;;;;;;;28.23;18.30;;;0.40;99.90;;;;;;5031671;28;20186;-86
2023/02/11 00:09:57;;;;;;;26.83;17.48;;;0.40;99.90;;;;;;5039503;28;20231;-86
2023/02/11 00:12:23;;;;;;;27.77;18.60;;;0.80;99.90;;;;;;5040341;28;20198;-86
2023/02/11 00:14:48;;;;;;;27.67;18.53;;;0.90;99.90;;;;;;5035403;28;20217;-85
2023/02/11 00:17:15;;;;;;;29.73;18.30;;;0.50;99.90;;;;;;5035477;28;20189;-86
2023/02/11 00:19:40;;;;;;;28.13;17.92;;;0.50;99.90;;;;;;5050155;28;20294;-86
2023/02/11 00:22:06;;;;;;;28.00;18.47;;;1.10;99.90;;;;;;5042371;28;20232;-85
2023/02/11 00:24:31;;;;;;;29.93;18.60;;;0.60;99.90;;;;;;5034768;28;20533;-84
2023/02/11 00:26:57;;;;;;;30.33;19.13;;;0.50;99.90;;;;;;5025523;28;20269;-86
2023/02/11 00:29:23;;;;;;;30.57;21.40;;;0.90;99.90;;;;;;5032538;28;20178;-85
2023/02/11 00:31:48;;;;;;;31.00;20.70;;;0.40;99.90;;;;;;5033009;28;20479;-85
2023/02/11 00:34:14;;;;;;;28.07;17.53;;;0.60;99.90;;;;;;5027841;28;20198;-86
2023/02/11 00:36:48;;;;;;;27.20;18.83;;;0.00;99.90;;;;;;5028442;28;20189;-84
2023/02/11 00:39:14;;;;;;;30.40;19.88;;;0.50;99.90;;;;;;5025261;28;20269;-85
2023/02/11 00:41:40;;;;;;;28.75;19.30;;;0.30;99.90;;;;;;5031325;28;20202;-84
2023/02/11 00:44:06;;;;;;;28.80;18.30;;;0.70;99.90;;;;;;5027859;28;20229;-85
2023/02/11 00:46:31;;;;;;;29.03;17.77;;;0.20;99.90;;;;;;5053176;28;20648;-85
2023/02/11 00:48:57;;;;;;;28.27;19.17;;;0.40;99.90;;;;;;5031876;28;20268;-87
2023/02/11 00:51:24;;;;;;;30.70;19.73;;;0.10;99.90;;;;;;5028409;28;20210;-85
2023/02/11 00:53:50;;;;;;;32.60;18.27;;;0.20;99.90;;;;;;5028765;28;20244;-84
2023/02/11 00:56:15;;;;;;;31.10;19.87;;;0.70;99.90;;;;;;5029033;28;20217;-84
2023/02/11 00:58:41;;;;;;;29.80;19.03;;;0.30;99.90;;;;;;5024341;28;20440;-86
2023/02/11 01:01:06;;;;;;;27.37;17.13;;;0.60;99.90;;;;;;5048827;28;20739;-86
2023/02/11 01:03:32;;;;;;;29.43;18.40;;;0.30;99.90;;;;;;5035172;28;20653;-86
2023/02/11 01:05:58;;;;;;;29.17;18.48;;;0.40;99.90;;;;;;5032087;28;20946;-85
2023/02/11 01:08:24;;;;;;;26.30;17.00;;;0.40;99.90;;;;;;5031591;28;20197;-84
2023/02/11 01:10:57;;;;;;;27.80;17.90;;;0.40;99.90;;;;;;5025092;28;20201;-85
2023/02/11 01:13:24;;;;;;;27.10;19.70;;;0.30;99.90;;;;;;5030736;28;20457;-85
2023/02/11 01:15:50;;;;;;;30.60;19.48;;;0.50;99.90;;;;;;5038403;28;20973;-86
2023/02/11 01:18:15;;;;;;;26.10;17.53;;;0.70;99.90;;;;;;5028388;28;20178;-84
2023/02/11 01:20:41;;;;;;;30.60;18.10;;;0.30;99.90;;;;;;5034434;28;20194;-85
2023/02/11 01:23:06;;;;;;;26.17;17.97;;;0.60;99.90;;;;;;5030106;28;20194;-86
2023/02/11 01:25:32;;;;;;;27.53;17.73;;;0.40;99.90;;;;;;5031819;28;20668;-84
2023/02/11 01:27:58;;;;;;;27.40;18.63;;;0.30;99.90;;;;;;5049144;28;20281;-85
2023/02/11 01:30:23;;;;;;;25.20;18.00;;;0.50;99.90;;;;;;5033499;28;20203;-86
2023/02/11 01:32:49;;;;;;;24.53;17.60;;;-0.30;99.90;;;;;;5031297;28;20175;-84
2023/02/11 01:35:14;;;;;;;27.47;18.20;;;0.60;99.90;;;;;;5032548;28;20264;-86
2023/02/11 01:37:40;;;;;;;27.23;18.63;;;0.10;99.90;;;;;;5032868;28;20177;-84
2023/02/11 01:40:11;;;;;;;29.20;17.93;;;0.90;99.90;;;;;;5031132;28;20216;-85
2023/02/11 01:42:36;;;;;;;28.27;18.52;;;0.40;99.90;;;;;;5026042;28;20488;-84
2023/02/11 01:45:37;;;;;;;28.23;17.67;;;0.70;99.90;;;;;;5034600;28;20183;-85
2023/02/11 01:48:03;;;;;;;25.75;18.50;;;0.50;99.90;;;;;;5030823;28;20221;-86
2023/02/11 01:50:29;;;;;;;25.73;16.77;;;0.30;99.90;;;;;;5029599;28;20228;-86
2023/02/11 01:57:20;;;;;;;26.20;17.80;;;1.00;99.90;;;;;;5031640;28;20432;-85
2023/02/11 01:58:27;;;;;;;28.02;19.23;;;0.50;99.90;;;;;;5049424;28;20208;-85
2023/02/11 02:00:53;;;;;;;26.70;17.58;;;0.50;99.90;;;;;;5033572;28;20698;-84
2023/02/11 02:03:21;;;;;;;33.22;17.52;;;0.40;99.90;;;;;;5027853;28;20255;-87
2023/02/11 02:06:02;;;;;;;29.70;18.00;;;0.50;99.90;;;;;;5034002;28;20264;-85
2023/02/11 02:08:47;;;;;;;30.27;17.23;;;0.30;99.90;;;;;;5031207;28;20177;-85
2023/02/11 02:11:13;;;;;;;25.95;17.30;;;0.50;99.90;;;;;;5023957;28;20214;-84
2023/02/11 02:13:38;;;;;;;26.57;17.80;;;0.50;99.90;;;;;;5031858;28;20643;-85
2023/02/11 02:16:10;;;;;;;25.40;17.77;;;0.40;99.90;;;;;;5030894;28;20515;-84
2023/02/11 02:19:13;;;;;;;34.70;19.27;;;0.50;99.90;;;;;;5042247;28;20182;-86
2023/02/11 02:22:01;;;;;;;25.77;16.80;;;0.50;99.90;;;;;;5043048;28;20645;-86
2023/02/11 02:24:55;;;;;;;24.55;17.25;;;0.40;99.90;;;;;;5027422;28;20245;-86
2023/02/11 02:27:52;;;;;;;25.02;16.00;;;0.40;99.90;;;;;;5031202;28;20185;-86
2023/02/11 02:30:24;;;;;;;28.50;17.63;;;0.60;99.90;;;;;;5028358;28;20198;-87
2023/02/11 02:33:19;;;;;;;27.38;17.33;;;0.40;99.90;;;;;;5032276;28;20181;-87
2023/02/11 02:36:11;;;;;;;24.58;16.67;;;0.50;99.90;;;;;;5029144;28;20205;-87
2023/02/11 02:38:59;;;;;;;25.08;17.40;;;0.30;99.90;;;;;;5028065;28;20189;-87
2023/02/11 02:41:32;;;;;;;21.70;14.70;;;0.30;99.90;;;;;;5029487;28;20205;-87
2023/02/11 02:43:58;;;;;;;27.13;17.77;;;0.30;99.90;;;;;;5031188;28;20704;-87
2023/02/11 02:46:32;;;;;;;24.63;17.47;;;0.80;99.90;;;;;;5033298;28;20205;-87
2023/02/11 02:48:59;;;;;;;25.80;17.05;;;0.50;99.90;;;;;;5026033;28;20190;-87
2023/02/11 02:51:54;;;;;;;28.48;18.63;;;0.70;99.90;;;;;;5033047;28;20213;-87
2023/02/11 02:54:27;;;;;;;28.13;18.15;;;0.50;99.90;;;;;;5030434;28;20220;-86
2023/02/11 02:57:26;;;;;;;25.73;17.80;;;0.50;99.90;;;;;;5026425;28;20185;-86
2023/02/11 03:00:09;;;;;;;28.02;17.10;;;0.30;99.90;;;;;;5028464;28;20185;-86
2023/02/11 03:03:09;;;;;;;26.98;17.67;;;-0.10;99.90;;;;;;5026026;28;20228;-86
2023/02/11 03:05:58;;;;;;;26.15;16.88;;;0.40;99.90;;;;;;5046175;28;20318;-83
2023/02/11 03:08:47;;;;;;;29.27;18.08;;;0.50;99.90;;;;;;5050161;28;20185;-86
2023/02/11 03:11:17;;;;;;;26.70;16.88;;;0.70;99.90;;;;;;5032308;28;20225;-85
2023/02/11 03:13:44;;;;;;;21.60;15.43;;;0.50;99.90;;;;;;5034273;28;20237;-86
2023/02/11 03:16:17;;;;;;;24.63;17.52;;;0.90;99.90;;;;;;5028747;28;20174;-86
2023/02/11 03:18:49;;;;;;;25.50;17.13;;;0.50;99.90;;;;;;5046811;28;20210;-86
2023/02/11 03:21:16;;;;;;;28.05;17.63;;;0.40;99.90;;;;;;5028366;28;20784;-87
2023/02/11 03:23:55;;;;;;;26.63;17.60;;;0.60;99.90;;;;;;5026513;28;20209;-86
2023/02/11 03:26:31;;;;;;;27.80;16.77;;;0.60;99.90;;;;;;5033261;28;20196;-86
2023/02/11 03:29:20;;;;;;;25.38;15.88;;;0.60;99.90;;;;;;5035306;28;20594;-84
2023/02/11 03:32:14;;;;;;;22.75;15.88;;;1.00;99.90;;;;;;5031054;28;20686;-87
2023/02/11 03:34:55;;;;;;;27.40;16.63;;;0.70;99.90;;;;;;5029448;28;20256;-86
2023/02/11 03:37:39;;;;;;;26.13;17.10;;;0.40;99.90;;;;;;5033497;28;20335;-86
2023/02/11 03:40:11;;;;;;;31.80;19.35;;;0.40;99.90;;;;;;5032942;28;20217;-86
2023/02/11 03:42:42;;;;;;;26.48;17.08;;;1.00;99.90;;;;;;5036918;28;20178;-86
2023/02/11 03:45:11;;;;;;;22.25;15.40;;;0.70;99.90;;;;;;5030257;28;20182;-86
2023/02/11 03:47:41;;;;;;;28.45;16.40;;;0.60;99.90;;;;;;5035100;28;20194;-86
2023/02/11 03:50:11;;;;;;;24.00;15.93;;;1.00;99.90;;;;;;5034550;28;20189;-86
2023/02/11 03:52:37;;;;;;;24.10;17.13;;;0.70;99.90;;;;;;5035457;28;20207;-87
2023/02/11 03:55:09;;;;;;;28.88;17.67;;;0.70;99.90;;;;;;5037280;28;20296;-87
2023/02/11 03:57:36;;;;;;;22.27;15.75;;;0.70;99.90;;;;;;5034113;28;20237;-84
2023/02/11 04:00:02;;;;;;;22.38;15.75;;;0.80;99.90;;;;;;5037432;28;20178;-84
2023/02/11 04:02:30;;;;;;;24.92;16.27;;;0.70;99.90;;;;;;5034564;28;20200;-85
2023/02/11 04:04:56;;;;;;;26.50;17.10;;;0.90;99.90;;;;;;5035617;28;20573;-85
2023/02/11 04:07:23;;;;;;;28.70;17.67;;;0.90;99.90;;;;;;5032632;28;20190;-85
2023/02/11 04:09:48;;;;;;;24.25;16.23;;;1.30;99.90;;;;;;5035605;28;20240;-85
2023/02/11 04:12:14;;;;;;;22.47;16.20;;;0.10;99.90;;;;;;5032741;28;20832;-85
2023/02/11 04:14:39;;;;;;;25.10;16.87;;;0.80;99.90;;;;;;5044392;28;20206;-85
2023/02/11 04:17:05;;;;;;;26.30;17.90;;;0.80;99.90;;;;;;5036496;28;20184;-86
2023/02/11 04:19:31;;;;;;;25.07;16.57;;;1.30;99.90;;;;;;5032833;28;20182;-87
2023/02/11 04:21:56;;;;;;;21.88;15.18;;;0.80;99.90;;;;;;5026286;28;20833;-86
2023/02/11 04:24:22;;;;;;;26.80;18.23;;;1.40;99.90;;;;;;5034641;28;20277;-87
2023/02/11 04:26:48;;;;;;;27.13;18.83;;;0.80;99.90;;;;;;5049371;28;20177;-85
2023/02/11 04:29:13;;;;;;;23.80;16.30;;;0.80;99.90;;;;;;5031604;28;20185;-85
2023/02/11 04:31:39;;;;;;;25.00;16.30;;;1.10;99.90;;;;;;5029195;28;20205;-86
2023/02/11 04:34:04;;;;;;;22.97;15.87;;;1.60;99.90;;;;;;5048910;28;20208;-85
2023/02/11 04:36:30;;;;;;;23.30;16.33;;;1.20;99.90;;;;;;5029369;28;20173;-86
2023/02/11 04:38:55;;;;;;;27.40;15.87;;;1.00;99.90;;;;;;5034185;28;20269;-85
2023/02/11 04:41:21;;;;;;;26.37;16.70;;;1.60;99.90;;;;;;5032461;28;20206;-85
2023/02/11 04:43:46;;;;;;;26.77;16.57;;;1.40;99.90;;;;;;5049910;28;20182;-85
2023/02/11 04:46:12;;;;;;;22.00;15.70;;;1.40;99.90;;;;;;5048187;28;20228;-85
2023/02/11 04:48:37;;;;;;;20.37;16.00;;;1.10;99.90;;;;;;5048689;28;20192;-85
2023/02/11 04:51:03;;;;;;;23.73;16.23;;;1.20;99.90;;;;;;5029798;28;20211;-83
2023/02/11 04:53:29;;;;;;;25.45;17.67;;;1.40;99.90;;;;;;5027638;28;20190;-87
2023/02/11 04:55:54;;;;;;;21.47;14.90;;;1.40;99.90;;;;;;5030600;28;20695;-87
2023/02/11 04:58:20;;;;;;;20.17;15.27;;;1.30;99.90;;;;;;5030965;28;20194;-85
2023/02/11 05:00:45;;;;;;;24.23;16.53;;;1.70;99.90;;;;;;5031669;28;20232;-85
2023/02/11 05:03:13;;;;;;;20.20;13.50;;;1.60;99.90;;;;;;5032618;28;20185;-85
2023/02/11 05:05:40;;;;;;;23.42;15.43;;;1.60;99.90;;;;;;5037326;28;20510;-86
2023/02/11 05:08:07;;;;;;;22.92;16.40;;;2.20;99.90;;;;;;5027394;28;20182;-85
2023/02/11 05:10:33;;;;;;;24.05;16.00;;;1.70;99.90;;;;;;5026194;28;20202;-85
2023/02/11 05:12:59;;;;;;;23.20;15.00;;;1.70;99.90;;;;;;5033400;28;20665;-85
2023/02/11 05:15:24;;;;;;;21.20;15.15;;;1.90;99.90;;;;;;5046893;28;20526;-86
2023/02/11 05:17:50;;;;;;;22.00;15.10;;;1.70;99.90;;;;;;5027932;28;20281;-84
2023/02/11 05:20:16;;;;;;;22.10;15.90;;;2.10;99.90;;;;;;5031512;28;20182;-86
2023/02/11 05:22:41;;;;;;;22.97;15.90;;;1.90;99.90;;;;;;5046980;28;20210;-86
2023/02/11 05:25:07;;;;;;;22.17;15.60;;;2.10;99.90;;;;;;5030644;28;20232;-85
2023/02/11 05:27:33;;;;;;;22.20;14.60;;;1.90;99.90;;;;;;5029812;28;20601;-84
2023/02/11 05:29:58;;;;;;;25.17;17.23;;;2.10;99.90;;;;;;5026391;28;20440;-86
2023/02/11 05:32:24;;;;;;;21.33;15.60;;;2.00;99.90;;;;;;5033232;28;20214;-86
2023/02/11 05:34:49;;;;;;;23.77;16.73;;;2.20;99.90;;;;;;5034278;28;20201;-86
2023/02/11 05:37:15;;;;;;;23.47;16.50;;;2.10;99.90;;;;;;5030900;28;20175;-85
2023/02/11 05:39:41;;;;;;;27.70;17.43;;;2.30;99.90;;;;;;5028562;28;20268;-86
2023/02/11 05:42:06;;;;;;;23.10;15.93;;;2.10;99.90;;;;;;5034355;28;20240;-87
2023/02/11 05:44:32;;;;;;;25.80;16.30;;;2.00;99.90;;;;;;5031819;28;20212;-86
2023/02/11 05:46:57;;;;;;;22.23;15.90;;;2.10;99.90;;;;;;5045421;28;20194;-83
2023/02/11 05:49:32;;;;;;;24.55;16.58;;;2.30;99.90;;;;;;5057910;28;21103;-64
2023/02/11 05:51:57;;;;;;;23.93;15.17;;;2.20;99.90;;;;;;5050477;28;20189;-62
2023/02/11 05:54:23;;;;;;;23.37;15.90;;;1.90;99.90;;;;;;5050528;28;20189;-62
2023/02/11 05:56:48;;;;;;;22.30;16.20;;;2.20;99.90;;;;;;5044462;28;20523;-64
2023/02/11 05:59:14;;;;;;;19.40;14.77;;;2.50;99.90;;;;;;5047775;28;20186;-63
2023/02/11 06:01:40;;;;;;;22.50;15.50;;;2.40;99.90;;;;;;5054191;28;20186;-64
2023/02/11 06:04:05;;;;;;;22.40;15.57;;;2.40;99.90;;;;;;5049269;28;20657;-64
2023/02/11 06:06:31;;;;;;;20.90;15.57;;;2.10;99.90;;;;;;5047582;28;20758;-64
2023/02/11 06:08:57;;;;;;;21.90;15.60;;;2.60;99.90;;;;;;5041202;28;20218;-63
2023/02/11 06:11:22;;;;;;;22.40;15.63;;;2.00;99.90;;;;;;5052076;28;20339;-62
2023/02/11 06:13:48;;;;;;;21.83;15.53;;;2.50;99.90;;;;;;5042364;28;20183;-64
2023/02/11 06:16:13;;;;;;;22.67;16.67;;;2.80;99.90;;;;;;5047150;28;20744;-62
2023/02/11 06:18:39;;;;;;;22.27;16.47;;;2.80;99.90;;;;;;5049185;28;20186;-62
2023/02/11 06:21:09;;;;;;;21.37;15.70;;;3.10;99.90;;;;;;5051039;28;20193;-63
2023/02/11 06:23:35;;;;;;;21.85;15.77;;;2.30;99.90;;;;;;5049360;28;20232;-62
2023/02/11 06:26:14;;;;;;;22.87;15.60;;;2.90;99.90;;;;;;5044748;28;20205;-62
2023/02/11 06:28:39;;;;;;;23.00;16.85;;;3.20;99.90;;;;;;5039260;28;20925;-65
2023/02/11 06:31:06;;;;;;;25.87;17.80;;;2.60;99.90;;;;;;5046051;28;20228;-62
2023/02/11 06:33:33;;;;;;;23.65;17.35;;;3.00;99.90;;;;;;5044892;28;20187;-62
2023/02/11 06:35:58;;;;;;;23.17;16.52;;;2.60;99.90;;;;;;5033344;28;20199;-63
2023/02/11 06:38:24;;;;;;;24.53;16.33;;;2.50;99.90;;;;;;5044525;28;20708;-63
2023/02/11 06:40:50;;;;;;;21.17;16.80;;;2.50;99.90;;;;;;5042276;28;20574;-63
2023/02/11 06:43:16;;;;;;;23.23;15.57;;;2.60;99.90;;;;;;5043303;28;20186;-63
2023/02/11 06:45:41;;;;;;;21.13;14.90;;;2.50;99.90;;;;;;5042233;28;21036;-63
2023/02/11 06:48:08;;;;;;;21.70;15.80;;;2.20;99.90;;;;;;5047349;28;20305;-64
2023/02/11 06:50:33;;;;;;;21.05;15.77;;;2.60;99.90;;;;;;5042195;28;20216;-63
2023/02/11 06:52:59;;;;;;;24.07;16.20;;;2.60;99.90;;;;;;5047887;28;20210;-62
2023/02/11 06:55:25;;;;;;;21.00;16.40;;;2.60;99.90;;;;;;5050468;28;20182;-63
2023/02/11 06:57:51;;;;;;;20.10;15.20;;;2.80;99.90;;;;;;5039084;28;20575;-64
2023/02/11 07:00:17;;;;;;;22.93;16.17;;;2.90;99.90;;;;;;5032786;28;20460;-62
2023/02/11 07:02:43;;;;;;;22.42;16.00;;;2.80;99.90;;;;;;5029707;28;20191;-62
2023/02/11 07:05:08;;;;;;;22.53;16.63;;;2.90;99.90;;;;;;5032202;28;20199;-63
2023/02/11 07:07:34;;;;;;;20.83;14.53;;;3.00;99.90;;;;;;5029117;28;20210;-63
2023/02/11 07:10:02;;;;;;;24.52;16.40;;;3.00;99.90;;;;;;5026908;28;21010;-62
2023/02/11 07:12:28;;;;;;;22.60;15.65;;;2.50;99.90;;;;;;5034972;28;20174;-63
2023/02/11 07:14:55;;;;;;;19.65;15.57;;;2.50;99.90;;;;;;5025197;28;20235;-62
2023/02/11 07:17:21;;;;;;;17.38;15.02;;;2.90;99.90;;;;;;5036033;28;20210;-63
2023/02/11 07:19:46;;;;;;;21.67;15.20;;;3.00;99.90;;;;;;5031043;28;20310;-63
2023/02/11 07:22:12;;;;;;;20.40;16.00;;;3.10;99.90;;;;;;5021639;28;20191;-65
2023/02/11 07:24:37;;;;;;;24.97;16.07;;;3.00;99.90;;;;;;5031096;28;20191;-68
2023/02/11 07:27:03;;;;;;;23.80;16.53;;;3.20;99.90;;;;;;5031285;28;20202;-63
2023/02/11 07:29:29;;;;;;;22.67;16.30;;;3.70;99.90;;;;;;5030061;28;20237;-63
2023/02/11 07:31:54;;;;;;;19.83;14.63;;;3.30;99.90;;;;;;5028084;28;20840;-65
2023/02/11 07:34:20;;;;;;;19.80;14.67;;;3.40;99.90;;;;;;5033473;28;20895;-66
2023/02/11 07:36:47;;;;;;;18.00;14.30;;;3.70;99.90;;;;;;5035598;28;20231;-65
2023/02/11 07:39:13;;;;;;;19.50;14.85;;;3.50;99.90;;;;;;5033637;28;20186;-63
2023/02/11 07:41:39;;;;;;;19.73;14.93;;;3.00;99.90;;;;;;5027763;28;20253;-64
2023/02/11 07:44:05;;;;;;;21.53;15.23;;;3.80;99.90;;;;;;5022314;28;20613;-63
2023/02/11 07:46:31;;;;;;;24.02;16.70;;;3.10;99.90;;;;;;5035605;28;20687;-63
2023/02/11 07:48:57;;;;;;;21.80;14.38;;;4.00;99.90;;;;;;5031324;28;20238;-62
2023/02/11 07:51:25;;;;;;;21.53;14.47;;;3.70;99.90;;;;;;5033222;28;20714;-64
2023/02/11 07:53:52;;;;;;;20.48;15.48;;;3.40;99.90;;;;;;5033084;28;20195;-64
2023/02/11 07:56:19;;;;;;;19.17;15.10;;;3.50;99.90;;;;;;5025647;28;20665;-64
2023/02/11 07:58:45;;;;;;;23.60;16.77;;;3.20;99.90;;;;;;5022815;28;20652;-65
2023/02/11 08:01:13;;;;;;;20.35;15.55;;;3.90;99.90;;;;;;5023240;28;20736;-65
2023/02/11 08:03:40;;;;;;;21.35;16.45;;;3.30;99.90;;;;;;5030011;28;20179;-63
2023/02/11 08:06:15;;;;;;;21.02;15.80;;;3.50;99.90;;;;;;5031335;28;20257;-64
2023/02/11 08:08:41;;;;;;;23.92;15.88;;;3.70;99.90;;;;;;5031886;28;20245;-64
2023/02/11 08:11:09;;;;;;;20.58;16.27;;;3.40;99.90;;;;;;5035842;28;20180;-64
2023/02/11 08:13:35;;;;;;;22.83;16.48;;;4.30;99.90;;;;;;5021649;28;20238;-64
2023/02/11 08:16:01;;;;;;;22.83;15.75;;;3.80;99.90;;;;;;5030886;28;20218;-63
2023/02/11 08:18:26;;;;;;;24.60;17.27;;;4.10;99.90;;;;;;5028772;28;20195;-64
2023/02/11 08:20:52;;;;;;;19.30;15.17;;;4.20;99.90;;;;;;5032240;28;20233;-65
2023/02/11 08:23:18;;;;;;;21.40;15.87;;;4.30;99.90;;;;;;5018515;28;20189;-65
2023/02/11 08:25:43;;;;;;;21.07;15.27;;;4.20;99.80;;;;;;5025681;28;20192;-65
2023/02/11 08:28:09;;;;;;;18.53;14.83;;;4.50;99.90;;;;;;5036745;28;20212;-65
2023/02/11 08:30:34;;;;;;;20.47;14.27;;;4.50;99.90;;;;;;5036306;28;20266;-65
2023/02/11 08:33:00;;;;;;;20.33;15.50;;;4.80;99.70;;;;;;5032620;28;20267;-65
2023/02/11 08:35:26;;;;;;;17.33;14.07;;;5.00;99.50;;;;;;5033538;28;20798;-65
2023/02/11 08:37:52;;;;;;;20.30;16.07;;;4.90;99.10;;;;;;5029682;28;20743;-65
2023/02/11 08:40:18;;;;;;;23.27;15.67;;;5.20;98.90;;;;;;5034491;28;20280;-65
2023/02/11 08:42:43;;;;;;;18.80;14.63;;;5.40;98.50;;;;;;5030537;28;20475;-65
2023/02/11 08:45:09;;;;;;;18.33;14.03;;;5.80;98.60;;;;;;5027242;28;20890;-65
2023/02/11 08:47:35;;;;;;;21.47;15.80;;;5.60;97.80;;;;;;5032167;28;20546;-66
2023/02/11 08:50:02;;;;;;;22.45;15.57;;;4.90;97.20;;;;;;5032933;28;20190;-66
2023/02/11 08:52:27;;;;;;;23.52;15.40;;;4.90;97.60;;;;;;5030037;28;20181;-66
2023/02/11 08:54:53;;;;;;;16.93;13.77;;;5.00;97.70;;;;;;5034025;28;20173;-66
2023/02/11 08:57:18;;;;;;;17.67;14.37;;;5.40;98.00;;;;;;5032834;28;20217;-66
2023/02/11 08:59:44;;;;;;;20.73;14.97;;;5.80;98.00;;;;;;5034897;28;20189;-66
2023/02/11 09:02:13;;;;;;;21.93;14.83;;;6.00;97.60;;;;;;5033847;28;20198;-66
2023/02/11 09:04:40;;;;;;;22.23;15.00;;;5.10;97.00;;;;;;5032967;28;20184;-66
2023/02/11 09:07:06;;;;;;;19.17;14.75;;;5.80;97.50;;;;;;5038286;28;20263;-66
2023/02/11 09:09:32;;;;;;;16.65;13.90;;;5.90;97.90;;;;;;5033471;28;20670;-66
2023/02/11 09:11:59;;;;;;;15.23;12.50;;;6.90;97.90;;;;;;5033671;28;20201;-67
2023/02/11 09:14:26;;;;;;;17.40;13.15;;;9.20;95.70;;;;;;5032855;28;20190;-67
2023/02/11 09:16:52;;;;;;;15.38;13.70;;;10.50;90.70;;;;;;5034896;28;20217;-66
2023/02/11 09:19:18;;;;;;;18.00;13.30;;;11.70;84.90;;;;;;5034110;28;20180;-66
2023/02/11 09:21:44;;;;;;;17.35;12.98;;;11.10;80.40;;;;;;5028254;28;20303;-66
2023/02/11 09:24:11;;;;;;;13.20;11.85;;;10.00;82.40;;;;;;5033370;28;20192;-67
2023/02/11 09:26:36;;;;;;;14.70;11.65;;;9.80;87.00;;;;;;5033773;28;20202;-67
2023/02/11 09:29:03;;;;;;;16.50;13.30;;;9.60;89.90;;;;;;5035344;28;20277;-67
2023/02/11 09:31:31;;;;;;;18.42;14.02;;;10.60;86.30;;;;;;5036139;28;20200;-67
2023/02/11 09:34:03;;;;;;;13.77;11.75;;;11.80;82.90;;;;;;5035166;28;20178;-68
2023/02/11 09:36:31;;;;;;;18.42;13.05;;;12.70;78.60;;;;;;5028030;28;20727;-68
2023/02/11 09:38:59;;;;;;;13.60;11.52;;;13.70;75.60;;;;;;5027760;28;20200;-66
2023/02/11 09:41:34;;;;;;;14.48;12.98;;;15.00;71.70;;;;;;5035192;28;20251;-66
2023/02/11 09:44:04;;;;;;;15.05;13.45;;;15.80;66.30;;;;;;5026781;28;20246;-68
2023/02/11 09:46:35;;;;;;;14.40;12.90;;;15.30;63.20;;;;;;5028279;28;20198;-68
2023/02/11 09:49:03;;;;;;;14.30;12.65;;;16.00;64.90;;;;;;5032721;28;20209;-68
2023/02/11 09:51:36;;;;;;;14.48;12.93;;;15.00;61.90;;;;;;5042772;28;20280;-68
2023/02/11 09:54:19;;;;;;;12.45;11.25;;;15.10;63.20;;;;;;5030937;28;20190;-67
2023/02/11 09:56:45;;;;;;;13.00;11.73;;;13.90;65.50;;;;;;5036033;28;20194;-68
2023/02/11 09:59:15;;;;;;;13.73;12.23;;;14.30;66.20;;;;;;5032172;28;20196;-67
2023/02/11 10:01:58;;;;;;;14.18;12.68;;;14.00;66.50;;;;;;5025779;28;20182;-69
2023/02/11 10:05:01;;;;;;;14.20;12.18;;;14.20;66.70;;;;;;5028021;28;20190;-68
2023/02/11 10:07:47;;;;;;;16.20;13.15;;;14.40;65.70;;;;;;5026687;28;20280;-67
2023/02/11 10:10:12;;;;;;;16.67;13.02;;;14.60;64.50;;;;;;5030423;28;20183;-67
2023/02/11 10:12:50;;;;;;;14.00;12.47;;;14.20;65.70;;;;;;5032908;28;20530;-67
2023/02/11 10:15:41;;;;;;;19.00;11.85;;;15.10;64.60;;;;;;5035004;28;20484;-67
2023/02/11 10:18:25;;;;;;;12.95;11.13;;;15.10;63.30;;;;;;5032684;28;20273;-67
2023/02/11 10:21:08;;;;;;;14.20;12.40;;;14.50;63.10;;;;;;5030672;28;20190;-67
2023/02/11 10:23:41;;;;;;;13.55;10.90;;;13.70;65.50;;;;;;5034638;28;20598;-67
2023/02/11 10:26:16;;;;;;;12.15;10.73;;;13.00;66.50;;;;;;5032176;28;20217;-67
2023/02/11 10:28:45;;;;;;;14.57;11.75;;;13.20;69.20;;;;;;5030562;28;20221;-67
2023/02/11 10:31:19;;;;;;;18.63;11.50;;;12.50;69.30;;;;;;5040906;28;20209;-67
2023/02/11 10:33:50;;;;;;;12.75;10.00;;;11.90;71.50;;;;;;5034295;28;20269;-67
2023/02/11 10:36:17;;;;;;;14.27;11.10;;;11.60;72.20;;;;;;5034476;28;20216;-67
2023/02/11 10:38:43;;;;;;;10.82;9.60;;;11.60;74.10;;;;;;5038039;28;20550;-67
2023/02/11 10:41:31;;;;;;;12.82;11.52;;;11.80;73.60;;;;;;5033953;28;20533;-67
2023/02/11 10:44:00;;;;;;;18.50;14.23;;;12.80;71.40;;;;;;5031440;28;20277;-67
2023/02/11 10:46:30;;;;;;;18.85;16.48;;;12.80;69.90;;;;;;5034923;28;20210;-67
2023/02/11 10:48:56;;;;;;;20.17;17.55;;;13.00;69.20;;;;;;5039152;28;20686;-68
2023/02/11 10:51:26;;;;;;;19.63;17.63;;;13.40;68.40;;;;;;5039635;28;20230;-67
2023/02/11 10:54:04;;;;;;;21.38;17.88;;;13.90;67.10;;;;;;5038519;28;20868;-67
2023/02/11 10:56:34;;;;;;;25.30;19.58;;;13.80;65.50;;;;;;5030187;28;20209;-67
2023/02/11 10:59:24;;;;;;;22.45;20.02;;;13.10;66.00;;;;;;5036297;28;20194;-67
2023/02/11 11:01:55;;;;;;;21.17;17.90;;;13.30;67.60;;;;;;5033694;28;21319;-67
2023/02/11 11:04:26;;;;;;;19.77;17.67;;;13.30;66.50;;;;;;5040828;28;20262;-68
2023/02/11 11:06:51;;;;;;;22.48;17.95;;;14.00;66.90;;;;;;5034092;28;20249;-67
2023/02/11 11:09:31;;;;;;;20.30;18.10;;;14.30;64.40;;;;;;5036324;28;20242;-67
2023/02/11 11:11:56;;;;;;;18.27;16.42;;;14.50;63.90;;;;;;5037771;28;20186;-67
2023/02/11 11:14:27;;;;;;;20.83;15.70;;;14.60;63.70;;;;;;5034393;28;20188;-67
2023/02/11 11:16:54;;;;;;;19.70;16.30;;;14.60;63.60;;;;;;5037881;28;20635;-67
2023/02/11 11:19:22;;;;;;;15.60;14.00;;;15.00;63.30;;;;;;5037647;28;20252;-68
2023/02/11 11:21:53;;;;;;;16.30;14.68;;;15.70;62.40;;;;;;5036891;28;20260;-68
2023/02/11 11:24:33;;;;;;;14.90;13.30;;;16.50;60.30;;;;;;5034390;28;20190;-68
2023/02/11 11:27:01;;;;;;;13.00;11.70;;;16.30;59.40;;;;;;5035493;28;20335;-68
2023/02/11 11:29:38;;;;;;;13.60;12.20;;;17.00;58.90;;;;;;5029754;28;20203;-68
2023/02/11 11:32:22;;;;;;;13.75;12.40;;;17.10;57.50;;;;;;5031814;28;20182;-68
2023/02/11 11:34:54;;;;;;;13.18;11.88;;;16.40;57.20;;;;;;5035081;28;20216;-68
2023/02/11 11:37:23;;;;;;;13.32;11.13;;;16.30;58.50;;;;;;5031137;28;20244;-67
2023/02/11 11:40:09;;;;;;;13.80;12.40;;;15.80;59.10;;;;;;5035173;28;20647;-69
2023/02/11 11:42:37;;;;;;;12.70;9.95;;;15.50;59.90;;;;;;5030138;28;20205;-69
2023/02/11 11:45:14;;;;;;;10.80;9.70;;;15.20;60.70;;;;;;5032863;28;20182;-68
2023/02/11 11:47:40;;;;;;;14.40;9.98;;;15.50;61.20;;;;;;5032750;28;20304;-68
2023/02/11 11:50:43;;;;;;;12.13;10.80;;;15.10;61.30;;;;;;5030848;28;20301;-68
2023/02/11 11:53:23;;;;;;;12.95;10.90;;;15.50;61.90;;;;;;5030336;28;20182;-68
2023/02/11 11:56:10;;;;;;;13.43;10.10;;;15.50;61.20;;;;;;5029604;28;20204;-68
2023/02/11 11:58:36;;;;;;;12.50;11.25;;;16.10;60.10;;;;;;5033945;28;20197;-68
2023/02/11 12:01:19;;;;;;;11.80;10.60;;;16.20;60.10;;;;;;5030582;28;20223;-68
2023/02/11 12:04:03;;;;;;;12.73;9.85;;;15.50;61.40;;;;;;5036857;28;20447;-67
2023/02/11 12:06:59;;;;;;;11.18;10.02;;;14.60;62.30;;;;;;5037218;28;20319;-67
2023/02/11 12:09:40;;;;;;;12.43;10.40;;;14.10;64.00;;;;;;5037538;28;20248;-70
2023/02/11 12:12:43;;;;;;;10.73;9.70;;;14.60;64.60;;;;;;5029580;28;20699;-66
2023/02/11 12:15:12;;;;;;;45.83;26.95;;;14.00;64.50;;;;;;5034929;28;20182;-66
2023/02/11 12:17:37;;;;;;;10.52;9.35;;;13.60;66.10;;;;;;5044732;28;20280;-66
2023/02/11 12:20:34;;;;;;;11.33;9.80;;;13.70;67.20;;;;;;5032634;28;20187;-67
2023/02/11 12:23:08;;;;;;;10.00;8.80;;;13.40;66.90;;;;;;5031443;28;20248;-66
2023/02/11 12:25:55;;;;;;;12.32;8.60;;;12.80;68.60;;;;;;5033190;28;20189;-66
2023/02/11 12:28:39;;;;;;;10.32;8.93;;;13.20;69.90;;;;;;5035156;28;20247;-66
2023/02/11 12:31:10;;;;;;;9.85;8.85;;;13.00;69.50;;;;;;5026427;28;20186;-65
2023/02/11 12:33:48;;;;;;;9.95;8.77;;;12.90;70.00;;;;;;5022231;28;20529;-66
2023/02/11 12:36:39;;;;;;;11.10;9.98;;;13.30;70.40;;;;;;5031623;28;20699;-67
2023/02/11 12:39:25;;;;;;;10.88;8.85;;;13.50;69.50;;;;;;5028163;28;20190;-66
2023/02/11 12:45:11;;;;;;;9.88;8.73;;;12.90;70.70;;;;;;5029234;28;20213;-67
2023/02/11 12:48:02;;;;;;;11.90;8.20;;;12.80;71.80;;;;;;5032570;28;20691;-66
2023/02/11 12:50:49;;;;;;;9.20;8.27;;;12.60;73.20;;;;;;5029043;28;20221;-67
2023/02/11 12:53:45;;;;;;;13.00;8.30;;;12.30;73.10;;;;;;5023089;28;20208;-66
2023/02/11 12:56:15;;;;;;;9.80;8.00;;;12.50;74.60;;;;;;5032580;28;20565;-66
2023/02/11 12:58:42;;;;;;;9.40;8.00;;;12.60;75.00;;;;;;5023882;28;20178;-67